Mariner Of The Seas — C6FV9 — position and weather

sailwx.info

Track history (hours):
 
Tides and Currents Weather Stations Pressure Air Temp Water Temp Dewpoint Dewpoint Depression Visibility Wind Speed Wind Dir Waves Ship Positions

Mariner Of The Seas

Operator: Royal Caribbean Cruises Ltd

Last reported at 2017-Apr-22 23:23 UTC. Time now 2017-Apr-27 01:32 UTC.
Position N 31°25' E 121°30'.

Type: Passenger vessel. MMSI: 311493000.

Date/timePositionNaut miles runAvg speedWind from/ knotsBaromVisibWave heightAir tempDewpointWater temp
2017-Apr-22 23:23N 31°25' E 121°30'3 6.2
2017-Apr-22 22:52N 31°24' E 121°34'410.2
2017-Apr-22 22:30N 31°22' E 121°38'  
2017-Apr-18 21:31N 31°25' E 121°30'0 4.2
2017-Apr-18 21:30N 31°25' E 121°30'3 7.0
2017-Apr-18 21:00N 31°24' E 121°34'5 8.7
2017-Apr-18 20:29N 31°21' E 121°39'9 9.6
2017-Apr-18 19:32N 31°17' E 121°48'  
2017-Apr-14 14:01N 31°10' E 122°53'814.0
2017-Apr-14 13:29N 31°06' E 122°46'1913.0
2017-Apr-14 12:00N 31°06' E 122°23'1713.9
2017-Apr-14 10:48N 31°14' E 122°06'1815.1
2017-Apr-14 09:38N 31°18' E 121°46'215.2
2017-Apr-14 09:29N 31°19' E 121°43'612.3
2017-Apr-14 09:00N 31°22' E 121°37'611.8
2017-Apr-14 08:30N 31°25' E 121°31'1 1.6
2017-Apr-14 07:58N 31°25' E 121°30'0 0.0
2017-Apr-14 07:28N 31°25' E 121°30'0 0.0
2017-Apr-14 06:58N 31°25' E 121°30'0 0.0
2017-Apr-14 06:16N 31°25' E 121°30'0 0.0
2017-Apr-14 05:58N 31°25' E 121°30'0 0.0
2017-Apr-14 05:28N 31°25' E 121°30'0 0.0
2017-Apr-14 04:58N 31°25' E 121°30'0 0.0
2017-Apr-14 03:58N 31°25' E 121°30'0 0.0
2017-Apr-14 03:22N 31°25' E 121°30'0 0.0
2017-Apr-14 02:58N 31°25' E 121°30'0 0.0
2017-Apr-14 02:28N 31°25' E 121°30'0 0.0
2017-Apr-14 01:58N 31°25' E 121°30'0 0.0
2017-Apr-14 01:28N 31°25' E 121°30'0 0.0
2017-Apr-14 00:55N 31°25' E 121°30'0 0.0
2017-Apr-14 00:22N 31°25' E 121°30'0 0.0
2017-Apr-13 23:52N 31°25' E 121°30'0 0.0
2017-Apr-13 23:28N 31°25' E 121°30'0 0.0
2017-Apr-13 22:58N 31°25' E 121°30'0 0.0
2017-Apr-13 22:28N 31°25' E 121°30'0 0.0
2017-Apr-13 21:58N 31°25' E 121°30'0 0.0
2017-Apr-13 21:16N 31°25' E 121°30'0 0.0
2017-Apr-13 20:52N 31°25' E 121°30'0 0.0
2017-Apr-13 20:28N 31°25' E 121°30'0 0.0
2017-Apr-13 19:58N 31°25' E 121°30'0 0.0
2017-Apr-13 19:25N 31°25' E 121°30'0 0.0
2017-Apr-13 18:55N 31°25' E 121°30'0 0.0
2017-Apr-13 18:28N 31°25' E 121°30'0 0.1
2017-Apr-13 18:00N 31°25' E 121°30'1 1.1
2017-Apr-13 17:30N 31°25' E 121°31'4 8.8
2017-Apr-13 17:00N 31°23' E 121°35'511.1
2017-Apr-13 16:31N 31°21' E 121°41'611.4
2017-Apr-13 16:01N 31°18' E 121°47'5 9.9
2017-Apr-13 15:30N 31°16' E 121°52'510.6
2017-Apr-13 15:01N 31°15' E 121°58'611.3
2017-Apr-13 14:31N 31°14' E 122°05'1111.1
2017-Apr-13 13:30N 31°08' E 122°16'612.0
2017-Apr-13 12:59N 31°06' E 122°23'713.9
2017-Apr-13 12:30N 31°07' E 122°30'917.7
2017-Apr-13 12:00N 31°07' E 122°41'1720.3
2017-Apr-13 11:10N 31°17' E 122°57'422.0
2017-Apr-13 11:00N 31°18' E 123°01'1122.5
2017-Apr-13 10:30N 31°22' E 123°13'1122.0
2017-Apr-13 10:00N 31°25' E 123°25'1221.4
2017-Apr-13 09:26N 31°30' E 123°39'717.3
2017-Apr-13 09:00N 31°33' E 123°47'815.2
2017-Apr-13 08:30N 31°35' E 123°55'914.8
2017-Apr-13 07:55N 31°38' E 124°05'614.5
2017-Apr-13 07:29N 31°41' E 124°11'714.6
2017-Apr-13 07:00N 31°44' E 124°19'814.8
2017-Apr-13 06:30N 31°47' E 124°27'  
Track history (hours):
 
Tides and Currents Weather Stations Pressure Air Temp Water Temp Dewpoint Dewpoint Depression Visibility Wind Speed Wind Dir Waves Ship Positions

Mariner Of The Seas

Operator: Royal Caribbean Cruises Ltd

Last reported at 2017-Apr-22 23:23 UTC. Time now 2017-Apr-27 01:32 UTC.
Position N 31°25' E 121°30'.

Type: Passenger vessel. MMSI: 311493000.

Date/timePositionNaut miles runAvg speedWind from/ knotsBaromVisibWave heightAir tempDewpointWater temp
2017-Apr-22 23:23N 31°25' E 121°30'3 6.2
2017-Apr-22 22:52N 31°24' E 121°34'410.2
2017-Apr-22 22:30N 31°22' E 121°38'  
2017-Apr-18 21:31N 31°25' E 121°30'0 4.2
2017-Apr-18 21:30N 31°25' E 121°30'3 7.0
2017-Apr-18 21:00N 31°24' E 121°34'5 8.7
2017-Apr-18 20:29N 31°21' E 121°39'9 9.6
2017-Apr-18 19:32N 31°17' E 121°48'  
2017-Apr-14 14:01N 31°10' E 122°53'814.0
2017-Apr-14 13:29N 31°06' E 122°46'1913.0
2017-Apr-14 12:00N 31°06' E 122°23'1713.9
2017-Apr-14 10:48N 31°14' E 122°06'1815.1
2017-Apr-14 09:38N 31°18' E 121°46'215.2
2017-Apr-14 09:29N 31°19' E 121°43'612.3
2017-Apr-14 09:00N 31°22' E 121°37'611.8
2017-Apr-14 08:30N 31°25' E 121°31'1 1.6
2017-Apr-14 07:58N 31°25' E 121°30'0 0.0
2017-Apr-14 07:28N 31°25' E 121°30'0 0.0
2017-Apr-14 06:58N 31°25' E 121°30'0 0.0
2017-Apr-14 06:16N 31°25' E 121°30'0 0.0
2017-Apr-14 05:58N 31°25' E 121°30'0 0.0
2017-Apr-14 05:28N 31°25' E 121°30'0 0.0
2017-Apr-14 04:58N 31°25' E 121°30'0 0.0
2017-Apr-14 03:58N 31°25' E 121°30'0 0.0
2017-Apr-14 03:22N 31°25' E 121°30'0 0.0
2017-Apr-14 02:58N 31°25' E 121°30'0 0.0
2017-Apr-14 02:28N 31°25' E 121°30'0 0.0
2017-Apr-14 01:58N 31°25' E 121°30'0 0.0
2017-Apr-14 01:28N 31°25' E 121°30'0 0.0
2017-Apr-14 00:55N 31°25' E 121°30'0 0.0
2017-Apr-14 00:22N 31°25' E 121°30'0 0.0
2017-Apr-13 23:52N 31°25' E 121°30'0 0.0
2017-Apr-13 23:28N 31°25' E 121°30'0 0.0
2017-Apr-13 22:58N 31°25' E 121°30'0 0.0
2017-Apr-13 22:28N 31°25' E 121°30'0 0.0
2017-Apr-13 21:58N 31°25' E 121°30'0 0.0
2017-Apr-13 21:16N 31°25' E 121°30'0 0.0
2017-Apr-13 20:52N 31°25' E 121°30'0 0.0
2017-Apr-13 20:28N 31°25' E 121°30'0 0.0
2017-Apr-13 19:58N 31°25' E 121°30'0 0.0
2017-Apr-13 19:25N 31°25' E 121°30'0 0.0
2017-Apr-13 18:55N 31°25' E 121°30'0 0.0
2017-Apr-13 18:28N 31°25' E 121°30'0 0.1
2017-Apr-13 18:00N 31°25' E 121°30'1 1.1
2017-Apr-13 17:30N 31°25' E 121°31'4 8.8
2017-Apr-13 17:00N 31°23' E 121°35'511.1
2017-Apr-13 16:31N 31°21' E 121°41'611.4
2017-Apr-13 16:01N 31°18' E 121°47'5 9.9
2017-Apr-13 15:30N 31°16' E 121°52'510.6
2017-Apr-13 15:01N 31°15' E 121°58'611.3
2017-Apr-13 14:31N 31°14' E 122°05'1111.1
2017-Apr-13 13:30N 31°08' E 122°16'612.0
2017-Apr-13 12:59N 31°06' E 122°23'713.9
2017-Apr-13 12:30N 31°07' E 122°30'917.7
2017-Apr-13 12:00N 31°07' E 122°41'1720.3
2017-Apr-13 11:10N 31°17' E 122°57'422.0
2017-Apr-13 11:00N 31°18' E 123°01'1122.5
2017-Apr-13 10:30N 31°22' E 123°13'1122.0
2017-Apr-13 10:00N 31°25' E 123°25'1221.4
2017-Apr-13 09:26N 31°30' E 123°39'717.3
2017-Apr-13 09:00N 31°33' E 123°47'815.2
2017-Apr-13 08:30N 31°35' E 123°55'914.8
2017-Apr-13 07:55N 31°38' E 124°05'614.5
2017-Apr-13 07:29N 31°41' E 124°11'714.6
2017-Apr-13 07:00N 31°44' E 124°19'814.8
2017-Apr-13 06:30N 31°47' E 124°27'  

Dump ship's entire track history